Vashon, WA (98070)

10:10 AM PST on December 09, 2016 (GMT -0800)
Vashon Loop | | Change Station

Elev 259 ft 47.46 °N, 122.45 °W | Updated 45 seconds ago

Rain
Rain
34.9 °F
Feels Like 35 °F
N
0.0
Wind Variable Wind from East
Gusts 5.8 mph

Today
High -- | Low -- °F
--% Chance of Precip.
Yesterday
High -- | Low -- °F
Precip. -- in
Pressure 30.01 in
Visibility 8.0 miles
Clouds Mostly Cloudy 1600 ft
Overcast 2500 ft
Windchill 35 °F
Dew Point 36 °F
Humidity 97%
Rainfall 0.00 in
Snow Depth Not available.
7:46 AM 4:18 PM
Waxing Gibbous, 76% visible
METAR KSEA 091753Z 13008KT 8SM -RA BKN016 OVC025 01/M01 A2998 RMK AO2 SLP161 P0004 60009 T00061006 10011 20006 51007
Pressure 30.01 in
Visibility 8.0 miles
Clouds Mostly Cloudy 1600 ft
Overcast 2500 ft
Windchill 35 °F
Dew Point 36 °F
Humidity 97%
Rainfall 0.00 in
Snow Depth Not available.
7:46 AM 4:18 PM
Waxing Gibbous, 76% visible
METAR KSEA 091753Z 13008KT 8SM -RA BKN016 OVC025 01/M01 A2998 RMK AO2 SLP161 P0004 60009 T00061006 10011 20006 51007

10-Day Weather Forecast

Almanac

Astronomy

Dec. 09, 2016 Rise Set
Actual Time
Civil Twilight
Nautical Twilight
Astronomical Twilight
Moon
Length of Visible Light
Length of Day
Tomorrow will be .
, % of the Moon is Illuminated

Today's Extremes

State Highs State Lows

Community

WunderPhotos

Upload Photos

1,956,499 photos uploaded!

WunderBlog® & News

Nearby

Air Quality

  Air Quality AQ Index Pollutant
Not available.

Snow Depth

Station Depth Elevation

Earthquake Activity

City Distance Mag. Time & Date
Minimum magnitude displayed is 2.5.

Coastal Water Temperatures

Place Temperature

Stations

Nearby Weather Stations

Station Location Temp. Windchill Dew Point Humidity Wind Precip. Elev Updated Type
                   

Watches & Warnings

There are currently no watches in effect.